createdAt,value
2023-05-18T00:01:20.891Z,100231.55
2023-05-18T00:03:48.649Z,100231.95
2023-05-18T00:06:19.463Z,100232.94
2023-05-18T00:08:46.832Z,100237.17
2023-05-18T00:11:14.297Z,100239.13
2023-05-18T00:13:42.033Z,100240.59
2023-05-18T00:16:09.194Z,100241.02
2023-05-18T00:18:37.170Z,100247.52
2023-05-18T00:21:04.852Z,100253.07
2023-05-18T00:23:32.092Z,100250.23
2023-05-18T00:26:00.115Z,100242.46
2023-05-18T00:28:27.365Z,100244.34
2023-05-18T00:30:54.860Z,100249.57
2023-05-18T00:33:22.739Z,100248.77
2023-05-18T00:35:50.824Z,100241.66
2023-05-18T00:38:18.235Z,100238.58
2023-05-18T00:40:45.529Z,100236.34
2023-05-18T00:43:12.802Z,100233.80
2023-05-18T00:45:39.989Z,100236.08
2023-05-18T00:48:07.488Z,100237.42
2023-05-18T00:50:35.203Z,100236.55
2023-05-18T00:53:02.373Z,100236.63
2023-05-18T00:55:29.857Z,100237.17
2023-05-18T00:57:57.329Z,100239.23
2023-05-18T01:00:24.648Z,100240.11
2023-05-18T01:02:53.178Z,100239.75
2023-05-18T01:05:22.566Z,100245.58
2023-05-18T01:07:50.739Z,100245.85
2023-05-18T01:10:23.565Z,100243.41
2023-05-18T01:12:57.676Z,100244.79
2023-05-18T01:15:34.066Z,100246.54
2023-05-18T01:18:10.625Z,100247.80
2023-05-18T01:20:46.616Z,100249.45
2023-05-18T01:23:45.288Z,100249.51
2023-05-18T01:26:25.527Z,100247.46
2023-05-18T01:28:53.715Z,100245.79
2023-05-18T01:31:21.986Z,100247.88
2023-05-18T01:33:49.201Z,100249.17
2023-05-18T01:36:18.498Z,100249.91
2023-05-18T01:38:46.407Z,100250.67
2023-05-18T01:41:21.639Z,100248.04
2023-05-18T01:43:54.470Z,100249.95
2023-05-18T01:46:26.493Z,100250.25
2023-05-18T01:49:00.668Z,100250.91
2023-05-18T01:51:31.687Z,100254.79
2023-05-18T01:54:08.070Z,100255.28
2023-05-18T01:56:38.260Z,100262.54
2023-05-18T01:59:06.388Z,100266.92
2023-05-18T02:01:34.068Z,100266.17
2023-05-18T02:04:01.377Z,100270.54
2023-05-18T02:06:28.962Z,100267.33
2023-05-18T02:08:56.273Z,100260.55
2023-05-18T02:11:23.339Z,100259.50
2023-05-18T02:13:51.163Z,100264.02
2023-05-18T02:16:18.459Z,100265.02
2023-05-18T02:18:45.918Z,100269.98
2023-05-18T02:21:14.489Z,100272.08
2023-05-18T02:23:42.163Z,100273.00
2023-05-18T02:26:09.218Z,100271.28
2023-05-18T02:28:40.271Z,100268.87
2023-05-18T02:31:12.155Z,100275.21
2023-05-18T02:33:42.627Z,100276.02
2023-05-18T02:36:12.627Z,100278.61
2023-05-18T02:38:40.876Z,100275.40
2023-05-18T02:41:08.852Z,100273.48
2023-05-18T02:43:36.606Z,100274.09
2023-05-18T02:46:06.989Z,100273.21
2023-05-18T02:48:34.465Z,100274.52
2023-05-18T02:51:03.771Z,100272.75
2023-05-18T02:53:32.636Z,100275.30
2023-05-18T02:56:04.123Z,100275.21
2023-05-18T02:58:59.143Z,100280.36
2023-05-18T03:01:38.694Z,100280.77
2023-05-18T03:04:05.985Z,100283.79
2023-05-18T03:06:33.335Z,100287.27
2023-05-18T03:09:00.795Z,100287.27
2023-05-18T03:11:41.251Z,100287.27
2023-05-18T03:14:09.021Z,100286.84
2023-05-18T03:16:39.140Z,100285.84
2023-05-18T03:19:11.153Z,100285.95
2023-05-18T03:21:40.405Z,100287.70
2023-05-18T03:24:07.661Z,100292.33
2023-05-18T03:26:40.091Z,100298.41
2023-05-18T03:29:07.446Z,100301.81
2023-05-18T03:31:34.886Z,100303.34
2023-05-18T03:34:02.774Z,100300.88
2023-05-18T03:36:29.862Z,100303.77
2023-05-18T03:38:57.077Z,100307.08
2023-05-18T03:41:24.530Z,100310.88
2023-05-18T03:43:53.035Z,100311.46
2023-05-18T03:46:20.313Z,100317.09
2023-05-18T03:48:47.529Z,100317.31
2023-05-18T03:51:16.469Z,100312.98
2023-05-18T03:53:43.767Z,100311.33
2023-05-18T03:56:10.915Z,100319.81
2023-05-18T03:58:38.384Z,100321.16
2023-05-18T04:01:05.715Z,100321.63
2023-05-18T04:03:35.924Z,100317.38
2023-05-18T04:06:03.190Z,100314.05
2023-05-18T04:08:30.955Z,100319.88
2023-05-18T04:10:59.168Z,100318.98
2023-05-18T04:13:26.490Z,100319.54
2023-05-18T04:15:54.717Z,100321.33
2023-05-18T04:18:22.833Z,100327.56
2023-05-18T04:20:50.331Z,100326.38
2023-05-18T04:23:18.160Z,100328.84
2023-05-18T04:25:46.332Z,100331.80
2023-05-18T04:28:13.381Z,100336.84
2023-05-18T04:30:40.968Z,100335.77
2023-05-18T04:33:10.317Z,100341.64
2023-05-18T04:35:39.884Z,100343.76
2023-05-18T04:38:07.460Z,100343.13
2023-05-18T04:40:39.933Z,100345.34
2023-05-18T04:43:10.866Z,100345.64
2023-05-18T04:45:38.885Z,100348.45
2023-05-18T04:48:06.873Z,100351.01
2023-05-18T04:50:34.058Z,100349.25
2023-05-18T04:53:02.740Z,100351.48
2023-05-18T04:55:31.533Z,100348.00
2023-05-18T04:58:07.477Z,100344.10
2023-05-18T05:00:34.841Z,100347.31
2023-05-18T05:03:02.334Z,100352.42
2023-05-18T05:05:30.392Z,100351.98
2023-05-18T05:07:59.011Z,100354.77
2023-05-18T05:10:26.237Z,100353.19
2023-05-18T05:12:54.369Z,100356.92
2023-05-18T05:15:21.527Z,100358.54
2023-05-18T05:17:50.790Z,100359.44
2023-05-18T05:20:19.401Z,100365.38
2023-05-18T05:22:47.559Z,100363.48
2023-05-18T05:25:17.489Z,100364.45
2023-05-18T05:27:45.105Z,100364.33
2023-05-18T05:30:13.029Z,100367.09
2023-05-18T05:32:42.152Z,100367.36
2023-05-18T05:35:09.881Z,100365.44
2023-05-18T05:37:37.245Z,100363.73
2023-05-18T05:40:06.807Z,100366.52
2023-05-18T05:42:42.189Z,100368.70
2023-05-18T05:45:09.962Z,100366.77
2023-05-18T05:47:44.925Z,100369.23
2023-05-18T05:50:13.034Z,100366.48
2023-05-18T05:52:40.625Z,100369.63
2023-05-18T05:55:08.185Z,100371.60
2023-05-18T05:57:36.359Z,100376.27
2023-05-18T06:00:05.053Z,100377.46
2023-05-18T06:02:49.020Z,100376.17
2023-05-18T06:05:21.196Z,100376.92
2023-05-18T06:07:48.583Z,100380.34
2023-05-18T06:10:15.972Z,100378.69
2023-05-18T06:12:43.425Z,100384.65
2023-05-18T06:15:11.402Z,100385.30
2023-05-18T06:17:40.696Z,100385.77
2023-05-18T06:20:08.972Z,100392.31
2023-05-18T06:22:36.864Z,100392.41
2023-05-18T06:25:36.377Z,100389.55
2023-05-18T06:28:22.853Z,100393.56
2023-05-18T06:30:56.148Z,100398.60
2023-05-18T06:33:52.177Z,100392.88
2023-05-18T06:36:19.735Z,100393.09
2023-05-18T06:38:46.989Z,100393.96
2023-05-18T06:41:16.347Z,100390.30
2023-05-18T06:43:43.738Z,100389.80
2023-05-18T06:46:23.714Z,100390.54
2023-05-18T06:48:54.735Z,100393.52
2023-05-18T06:51:22.307Z,100397.70
2023-05-18T06:53:50.779Z,100393.57
2023-05-18T06:56:19.032Z,100395.10
2023-05-18T06:58:49.958Z,100395.77
2023-05-18T07:01:20.848Z,100391.83
2023-05-18T07:03:48.326Z,100395.65
2023-05-18T07:06:15.699Z,100399.96
2023-05-18T07:08:44.441Z,100399.14
2023-05-18T07:11:11.584Z,100399.56
2023-05-18T07:13:38.686Z,100399.02
2023-05-18T07:16:06.740Z,100401.23
2023-05-18T07:18:34.521Z,100400.11
2023-05-18T07:21:01.620Z,100401.28
2023-05-18T07:23:29.284Z,100402.84
2023-05-18T07:25:57.815Z,100401.24
2023-05-18T07:28:24.862Z,100401.66
2023-05-18T07:30:51.925Z,100410.29
2023-05-18T07:33:19.266Z,100412.16
2023-05-18T07:35:46.472Z,100412.05
2023-05-18T07:39:50.593Z,100410.84
2023-05-18T07:42:17.740Z,100411.66
2023-05-18T07:44:45.813Z,100410.38
2023-05-18T07:47:13.165Z,100409.77
2023-05-18T07:49:40.422Z,100411.85
2023-05-18T07:52:08.697Z,100410.44
2023-05-18T07:54:36.077Z,100409.58
2023-05-18T07:57:04.366Z,100407.14
2023-05-18T07:59:31.487Z,100407.73
2023-05-18T08:02:00.369Z,100411.07
2023-05-18T08:04:27.632Z,100406.36
2023-05-18T08:06:55.705Z,100409.98
2023-05-18T08:09:24.640Z,100406.02
2023-05-18T08:11:53.683Z,100405.73
2023-05-18T08:14:21.143Z,100405.84
2023-05-18T08:16:48.316Z,100403.93
2023-05-18T08:19:15.401Z,100400.38
2023-05-18T08:21:42.592Z,100397.47
2023-05-18T08:24:10.046Z,100396.25
2023-05-18T08:26:37.352Z,100401.80
2023-05-18T08:29:11.345Z,100400.44
2023-05-18T08:31:39.346Z,100401.13
2023-05-18T08:34:06.890Z,100405.79
2023-05-18T08:36:34.744Z,100397.72
2023-05-18T08:39:03.136Z,100396.90
2023-05-18T08:41:31.617Z,100389.08
2023-05-18T08:44:24.796Z,100384.29
2023-05-18T08:46:52.419Z,100382.83
2023-05-18T08:49:21.036Z,100391.02
2023-05-18T08:51:58.218Z,100388.33
2023-05-18T08:54:25.366Z,100388.41
2023-05-18T08:56:53.329Z,100384.81
2023-05-18T08:59:24.541Z,100387.55
2023-05-18T09:01:52.393Z,100383.27
2023-05-18T09:04:20.038Z,100381.89
2023-05-18T09:06:52.173Z,100379.35
2023-05-18T09:09:20.373Z,100381.48
2023-05-18T09:11:47.916Z,100376.22
2023-05-18T09:14:15.253Z,100379.32
2023-05-18T09:16:42.321Z,100381.06
2023-05-18T09:19:10.160Z,100375.89
2023-05-18T09:21:37.339Z,100370.13
2023-05-18T09:24:04.736Z,100368.92
2023-05-18T09:26:31.942Z,100369.84
2023-05-18T09:28:59.887Z,100368.75
2023-05-18T09:31:27.979Z,100362.98
2023-05-18T09:33:55.308Z,100353.80
2023-05-18T09:36:26.528Z,100353.34
2023-05-18T09:38:53.886Z,100354.68
2023-05-18T09:41:22.205Z,100350.00
2023-05-18T09:43:49.666Z,100362.85
2023-05-18T09:46:18.022Z,100359.15
2023-05-18T09:48:51.501Z,100349.59
2023-05-18T09:51:18.967Z,100351.41
2023-05-18T09:53:59.191Z,100349.18
2023-05-18T09:56:27.300Z,100350.31
2023-05-18T09:58:55.481Z,100345.23
2023-05-18T10:01:23.500Z,100339.45
2023-05-18T10:03:50.919Z,100344.83
2023-05-18T10:06:20.388Z,100342.60
2023-05-18T10:09:07.710Z,100340.63
2023-05-18T10:11:35.454Z,100338.42
2023-05-18T10:14:02.608Z,100337.29
2023-05-18T10:16:29.816Z,100340.37
2023-05-18T10:18:57.493Z,100338.95
2023-05-18T10:21:25.022Z,100333.68
2023-05-18T10:23:52.543Z,100332.10
2023-05-18T10:26:20.407Z,100330.96
2023-05-18T10:28:48.481Z,100328.17
2023-05-18T10:31:17.183Z,100322.38
2023-05-18T10:33:44.784Z,100324.52
2023-05-18T10:36:12.122Z,100324.48
2023-05-18T10:38:43.746Z,100324.94
2023-05-18T10:41:10.806Z,100322.33
2023-05-18T10:43:38.146Z,100320.90
2023-05-18T10:46:05.709Z,100318.85
2023-05-18T10:48:33.032Z,100316.39
2023-05-18T10:51:00.457Z,100315.45
2023-05-18T10:53:29.657Z,100312.31
2023-05-18T10:55:57.212Z,100313.63
2023-05-18T10:58:26.348Z,100313.97
2023-05-18T11:00:59.287Z,100305.77
2023-05-18T11:03:27.363Z,100311.69
2023-05-18T11:06:11.190Z,100305.29
2023-05-18T11:08:47.828Z,100306.36
2023-05-18T11:11:17.236Z,100308.54
2023-05-18T11:13:48.838Z,100308.08
2023-05-18T11:16:23.173Z,100302.64
2023-05-18T11:18:53.541Z,100301.21
2023-05-18T11:21:36.646Z,100296.07
2023-05-18T11:24:23.815Z,100297.66
2023-05-18T11:27:04.226Z,100295.27
2023-05-18T11:29:36.076Z,100295.25
2023-05-18T11:44:40.450Z,100291.52
2023-05-18T11:47:11.638Z,100294.66
2023-05-18T11:49:45.608Z,100290.93
2023-05-18T11:52:20.953Z,100289.08
2023-05-18T11:54:58.779Z,100292.75
2023-05-18T11:57:35.524Z,100293.75
2023-05-18T12:00:08.102Z,100287.27
2023-05-18T12:02:47.333Z,100287.09
2023-05-18T12:05:15.886Z,100285.27
2023-05-18T12:07:43.132Z,100285.98
2023-05-18T12:10:12.062Z,100283.19
2023-05-18T12:12:42.116Z,100283.30
2023-05-18T12:15:12.065Z,100279.77
2023-05-18T12:17:50.263Z,100284.91
2023-05-18T12:20:18.841Z,100287.61
2023-05-18T12:22:47.594Z,100280.92
2023-05-18T12:25:15.059Z,100283.89
2023-05-18T12:27:48.013Z,100288.25
2023-05-18T12:30:18.681Z,100292.11
2023-05-18T12:32:47.041Z,100292.64
2023-05-18T12:35:14.383Z,100293.44
2023-05-18T12:37:47.842Z,100294.83
2023-05-18T12:40:17.252Z,100291.61
2023-05-18T12:42:58.456Z,100290.69
2023-05-18T12:45:33.669Z,100290.37
2023-05-18T12:48:06.034Z,100290.66
2023-05-18T12:50:33.341Z,100292.16
2023-05-18T12:53:02.032Z,100295.11
2023-05-18T12:55:31.341Z,100295.66
2023-05-18T12:58:06.393Z,100297.30
2023-05-18T13:00:37.326Z,100291.47
2023-05-18T13:03:15.022Z,100292.90
2023-05-18T13:05:45.050Z,100287.27
2023-05-18T13:08:18.177Z,100286.71
2023-05-18T13:10:45.805Z,100282.23
2023-05-18T13:13:15.698Z,100282.38
2023-05-18T13:15:43.345Z,100284.98
2023-05-18T13:18:11.558Z,100280.48
2023-05-18T13:20:43.691Z,100279.30
2023-05-18T13:23:12.729Z,100280.40
2023-05-18T13:25:40.581Z,100276.47
2023-05-18T13:28:10.677Z,100279.37
2023-05-18T13:30:38.680Z,100278.66
2023-05-18T13:33:08.440Z,100278.36
2023-05-18T13:35:40.514Z,100278.66
2023-05-18T13:38:11.555Z,100276.59
2023-05-18T13:40:38.727Z,100274.85
2023-05-18T13:43:10.954Z,100272.33
2023-05-18T13:45:40.048Z,100271.48
2023-05-18T13:48:10.107Z,100272.84
2023-05-18T13:50:39.470Z,100273.70
2023-05-18T13:53:07.102Z,100272.61
2023-05-18T13:55:37.390Z,100270.08
2023-05-18T13:58:04.734Z,100273.20
2023-05-18T14:00:34.509Z,100269.48
2023-05-18T14:03:02.163Z,100270.94
2023-05-18T14:05:29.771Z,100271.52
2023-05-18T14:07:58.149Z,100270.08
2023-05-18T14:10:25.512Z,100272.70
2023-05-18T14:12:52.659Z,100274.28
2023-05-18T14:15:19.711Z,100271.00
2023-05-18T14:17:46.938Z,100269.36
2023-05-18T14:20:23.419Z,100268.58
2023-05-18T14:22:50.675Z,100267.38
2023-05-18T14:25:17.932Z,100265.11
2023-05-18T14:27:50.931Z,100263.74
2023-05-18T14:30:18.182Z,100267.77
2023-05-18T14:32:45.380Z,100267.04
2023-05-18T14:35:13.089Z,100266.63
2023-05-18T14:37:40.863Z,100266.10
2023-05-18T14:40:09.002Z,100266.04
2023-05-18T14:42:40.518Z,100262.02
2023-05-18T14:45:10.183Z,100262.09
2023-05-18T14:47:37.497Z,100258.66
2023-05-18T14:50:05.726Z,100257.54
2023-05-18T14:52:32.868Z,100259.26
2023-05-18T14:55:00.218Z,100257.94
2023-05-18T14:57:30.751Z,100260.82
2023-05-18T14:59:58.515Z,100257.27
2023-05-18T15:02:31.256Z,100260.34
2023-05-18T15:04:58.557Z,100258.05
2023-05-18T15:07:39.217Z,100258.99
2023-05-18T15:10:09.750Z,100255.65
2023-05-18T15:12:37.571Z,100254.69
2023-05-18T15:15:14.179Z,100251.45
2023-05-18T15:17:41.559Z,100248.93
2023-05-18T15:20:09.515Z,100245.96
2023-05-18T15:22:38.632Z,100248.36
2023-05-18T15:25:07.657Z,100247.66
2023-05-18T15:27:38.648Z,100247.19
2023-05-18T15:30:11.742Z,100249.02
2023-05-18T15:32:39.322Z,100246.41
2023-05-18T15:35:07.660Z,100249.63
2023-05-18T15:37:35.474Z,100247.02
2023-05-18T15:40:03.027Z,100248.73
2023-05-18T15:42:30.242Z,100254.90
2023-05-18T15:44:57.856Z,100254.86
2023-05-18T15:47:28.662Z,100256.77
2023-05-18T15:49:57.766Z,100252.63
2023-05-18T15:52:25.577Z,100258.08
2023-05-18T15:54:52.732Z,100260.27
2023-05-18T15:57:19.985Z,100257.14
2023-05-18T15:59:47.330Z,100254.66
2023-05-18T16:02:15.514Z,100255.17
2023-05-18T16:04:42.909Z,100260.56
2023-05-18T16:07:09.857Z,100262.98
2023-05-18T16:09:36.766Z,100259.63
2023-05-18T16:12:04.012Z,100264.95
2023-05-18T16:14:31.450Z,100264.16
2023-05-18T16:16:58.719Z,100264.20
2023-05-18T16:19:32.563Z,100266.55
2023-05-18T16:22:03.511Z,100265.74
2023-05-18T16:24:33.946Z,100269.20
2023-05-18T16:27:01.835Z,100269.15
2023-05-18T16:29:29.131Z,100270.54
2023-05-18T16:31:56.740Z,100269.08
2023-05-18T16:34:23.978Z,100272.02
2023-05-18T16:36:51.239Z,100273.45
2023-05-18T16:39:18.503Z,100280.12
2023-05-18T16:41:45.854Z,100281.36
2023-05-18T16:44:12.799Z,100281.48
2023-05-18T16:46:39.989Z,100282.71
2023-05-18T16:49:07.410Z,100285.82
2023-05-18T16:51:34.346Z,100286.91
2023-05-18T16:54:01.356Z,100286.90
2023-05-18T16:56:29.924Z,100289.69
2023-05-18T16:58:56.864Z,100289.95
2023-05-18T17:01:28.524Z,100290.27
2023-05-18T17:03:56.225Z,100291.65
2023-05-18T17:06:23.380Z,100293.79
2023-05-18T17:08:57.758Z,100298.35
2023-05-18T17:11:27.190Z,100298.66
2023-05-18T17:13:54.693Z,100297.67
2023-05-18T17:16:22.475Z,100297.30
2023-05-18T17:18:49.611Z,100294.88
2023-05-18T17:21:16.948Z,100298.00
2023-05-18T17:23:43.993Z,100297.14
2023-05-18T17:26:11.115Z,100299.02
2023-05-18T17:28:38.135Z,100297.58
2023-05-18T17:31:06.746Z,100304.05
2023-05-18T17:33:33.834Z,100305.15
2023-05-18T17:36:00.882Z,100313.22
2023-05-18T17:38:28.177Z,100310.48
2023-05-18T17:40:55.217Z,100310.11
2023-05-18T17:43:22.149Z,100312.92
2023-05-18T17:45:49.096Z,100313.78
2023-05-18T17:48:16.319Z,100320.06
2023-05-18T17:50:45.646Z,100318.54
2023-05-18T17:53:12.827Z,100320.77
2023-05-18T17:55:39.815Z,100326.27
2023-05-18T17:58:06.870Z,100326.52
2023-05-18T18:00:33.976Z,100335.09
2023-05-18T18:03:01.856Z,100334.29
2023-05-18T18:05:29.103Z,100335.76
2023-05-18T18:07:57.873Z,100339.33
2023-05-18T18:10:24.961Z,100342.80
2023-05-18T18:12:54.071Z,100338.45
2023-05-18T18:15:23.790Z,100344.13
2023-05-18T18:21:07.660Z,100350.67
2023-05-18T18:23:35.556Z,100348.58
2023-05-18T18:26:03.751Z,100351.37
2023-05-18T18:28:33.274Z,100349.46
2023-05-18T18:31:00.530Z,100349.33
2023-05-18T18:33:27.574Z,100351.15
2023-05-18T18:35:55.702Z,100350.64
2023-05-18T18:38:22.865Z,100354.45
2023-05-18T18:40:50.544Z,100358.83
2023-05-18T18:43:17.709Z,100359.30
2023-05-18T18:45:44.966Z,100365.77
2023-05-18T18:48:12.131Z,100369.55
2023-05-18T18:50:39.229Z,100370.80
2023-05-18T18:53:06.308Z,100366.81
2023-05-18T18:55:33.609Z,100365.64
2023-05-18T18:58:01.736Z,100367.98
2023-05-18T19:00:30.053Z,100367.88
2023-05-18T19:02:59.723Z,100370.88
2023-05-18T19:05:27.321Z,100372.55
2023-05-18T19:07:56.352Z,100374.61
2023-05-18T19:10:23.623Z,100372.44
2023-05-18T19:12:52.157Z,100368.27
2023-05-18T19:15:21.682Z,100371.08
2023-05-18T19:17:54.666Z,100372.09
2023-05-18T19:20:21.975Z,100372.86
2023-05-18T19:22:49.627Z,100376.85
2023-05-18T19:25:16.882Z,100373.46
2023-05-18T19:27:43.923Z,100371.91
2023-05-18T19:30:13.585Z,100372.70
2023-05-18T19:32:41.096Z,100380.27
2023-05-18T19:35:08.370Z,100380.71
2023-05-18T19:41:49.872Z,100382.80
2023-05-18T19:44:17.064Z,100381.02
2023-05-18T19:46:44.611Z,100380.80
2023-05-18T19:49:11.896Z,100383.36
2023-05-18T19:51:39.019Z,100385.66
2023-05-18T19:54:06.058Z,100382.54
2023-05-18T19:56:34.566Z,100377.58
2023-05-18T19:59:01.802Z,100379.26
2023-05-18T20:04:50.736Z,100381.19
2023-05-18T20:07:18.314Z,100381.56
2023-05-18T20:09:45.345Z,100385.92
2023-05-18T20:12:12.502Z,100386.03
2023-05-18T20:14:39.694Z,100386.99
2023-05-18T20:17:06.808Z,100394.47
2023-05-18T20:19:34.059Z,100399.88
2023-05-18T20:22:01.103Z,100394.68
2023-05-18T20:24:28.385Z,100402.55
2023-05-18T20:26:55.538Z,100399.71
2023-05-18T20:29:22.594Z,100401.61
2023-05-18T20:31:49.765Z,100404.06
2023-05-18T20:34:46.358Z,100405.21
2023-05-18T20:37:16.345Z,100406.31
2023-05-18T20:39:51.020Z,100407.75
2023-05-18T20:42:22.190Z,100412.34
2023-05-18T20:44:51.633Z,100411.61
2023-05-18T20:47:21.554Z,100413.41
2023-05-18T20:49:48.897Z,100415.89
2023-05-18T20:52:16.079Z,100416.37
2023-05-18T20:54:43.705Z,100415.05
2023-05-18T20:57:10.771Z,100410.16
2023-05-18T20:59:37.813Z,100416.77
2023-05-18T21:02:05.195Z,100422.52
2023-05-18T21:04:32.215Z,100428.02
2023-05-18T21:06:59.366Z,100430.42
2023-05-18T21:09:26.424Z,100426.56
2023-05-18T21:11:53.452Z,100419.02
2023-05-18T21:14:20.783Z,100423.75
2023-05-18T21:16:47.917Z,100427.58
2023-05-18T21:19:15.084Z,100424.26
2023-05-18T21:21:43.435Z,100424.45
2023-05-18T21:24:10.892Z,100432.20
2023-05-18T21:26:37.870Z,100430.96
2023-05-18T21:29:05.329Z,100431.55
2023-05-18T21:31:32.467Z,100429.54
2023-05-18T21:33:59.588Z,100433.42
2023-05-18T21:36:36.033Z,100432.90
2023-05-18T21:39:04.343Z,100436.52
2023-05-18T21:41:31.905Z,100431.69
2023-05-18T21:43:59.069Z,100434.77
2023-05-18T21:46:26.198Z,100433.83
2023-05-18T21:48:53.512Z,100433.34
2023-05-18T21:51:20.657Z,100434.55
2023-05-18T21:53:49.269Z,100434.38
2023-05-18T21:56:17.015Z,100435.27
2023-05-18T21:58:44.033Z,100431.55
2023-05-18T22:01:11.219Z,100431.83
2023-05-18T22:03:38.742Z,100432.25
2023-05-18T22:06:05.899Z,100433.66
2023-05-18T22:08:32.945Z,100437.46
2023-05-18T22:11:00.239Z,100435.73
2023-05-18T22:13:27.596Z,100432.70
2023-05-18T22:15:54.589Z,100434.42
2023-05-18T22:18:24.004Z,100432.70
2023-05-18T22:20:51.154Z,100431.89
2023-05-18T22:23:18.248Z,100432.05
2023-05-18T22:25:46.020Z,100438.52
2023-05-18T22:28:13.178Z,100439.73
2023-05-18T22:30:40.219Z,100440.79
2023-05-18T22:33:07.267Z,100445.27
2023-05-18T22:35:37.033Z,100441.41
2023-05-18T22:38:03.978Z,100445.14
2023-05-18T22:40:31.545Z,100444.33
2023-05-18T22:42:58.952Z,100444.41
2023-05-18T22:45:26.020Z,100439.20
2023-05-18T22:47:55.106Z,100445.55
2023-05-18T22:50:22.195Z,100443.58
2023-05-18T22:52:49.783Z,100443.36
2023-05-18T22:55:16.927Z,100444.48
2023-05-18T22:57:44.744Z,100449.20
2023-05-18T23:00:14.255Z,100448.07
2023-05-18T23:02:41.817Z,100449.67
